Time;durP1;ratioP1;P1;durP2;ratioP2;P2;SDS_P1;SDS_P2;PMS_P1;PMS_P2;Temp;Humidity;BMP_temperature;BMP_pressure;BME280_temperature;BME280_humidity;BME280_pressure;Samples;Min_cycle;Max_cycle;Signal;HPM_P1;HPM_P2
2022/08/22 00:01:44;;;;;;;9.10;3.40;;;;;;;;;;5066985;28;20495;-64
2022/08/22 00:04:14;;;;;;;10.90;4.05;;;;;;;;;;5068449;28;20097;-63
2022/08/22 00:06:47;;;;;;;11.13;4.30;;;;;;;;;;5059106;28;20067;-64
2022/08/22 00:09:28;;;;;;;11.65;4.18;;;;;;;;;;5058353;28;20036;-64
2022/08/22 00:11:58;;;;;;;9.23;4.65;;;;;;;;;;5060282;28;21430;-63
2022/08/22 00:14:34;;;;;;;10.85;4.55;;;;;;;;;;5058599;28;20051;-64
2022/08/22 00:17:13;;;;;;;12.43;3.92;;;;;;;;;;5061586;28;20061;-65
2022/08/22 00:19:46;;;;;;;11.70;5.13;;;;;;;;;;5063529;28;20052;-63
2022/08/22 00:22:19;;;;;;;10.02;4.13;;;;;;;;;;5061234;28;20980;-64
2022/08/22 00:24:48;;;;;;;8.73;4.30;;;;;;;;;;5059292;28;20595;-63
2022/08/22 00:27:16;;;;;;;14.80;4.68;;;;;;;;;;5058434;28;20052;-63
2022/08/22 00:29:46;;;;;;;9.05;4.63;;;;;;;;;;5062645;28;20934;-63
2022/08/22 00:32:16;;;;;;;11.35;4.57;;;;;;;;;;5062481;28;20053;-64
2022/08/22 00:34:47;;;;;;;12.85;4.80;;;;;;;;;;5063129;28;20053;-64
2022/08/22 00:37:19;;;;;;;10.23;4.28;;;;;;;;;;5065845;28;20489;-63
2022/08/22 00:39:50;;;;;;;15.27;4.90;;;;;;;;;;5064126;28;20048;-64
2022/08/22 00:42:35;;;;;;;12.00;5.05;;;;;;;;;;5064060;28;20468;-63
2022/08/22 00:45:24;;;;;;;11.57;5.10;;;;;;;;;;5062891;28;20050;-63
2022/08/22 00:47:57;;;;;;;11.95;4.93;;;;;;;;;;5062153;28;20051;-64
2022/08/22 00:50:40;;;;;;;12.02;5.00;;;;;;;;;;5062535;28;20076;-65
2022/08/22 00:53:16;;;;;;;12.13;4.88;;;;;;;;;;5063101;28;20048;-63
2022/08/22 00:55:51;;;;;;;9.02;4.78;;;;;;;;;;5055161;28;20075;-64
2022/08/22 00:58:33;;;;;;;9.93;4.68;;;;;;;;;;5063650;28;20037;-63
2022/08/22 01:01:04;;;;;;;11.60;5.00;;;;;;;;;;5046217;28;20053;-64
2022/08/22 01:03:45;;;;;;;9.75;4.40;;;;;;;;;;5066517;28;20094;-63
2022/08/22 01:06:20;;;;;;;12.68;4.68;;;;;;;;;;5063075;28;20048;-64
2022/08/22 01:08:57;;;;;;;10.40;5.10;;;;;;;;;;5063832;28;20121;-62
2022/08/22 01:11:39;;;;;;;10.95;4.97;;;;;;;;;;5062879;28;20044;-64
2022/08/22 01:14:15;;;;;;;11.20;4.90;;;;;;;;;;5011673;28;20054;-64
2022/08/22 01:16:54;;;;;;;12.27;5.03;;;;;;;;;;5056205;28;20057;-63
2022/08/22 01:19:35;;;;;;;11.40;5.22;;;;;;;;;;5059670;28;20189;-63
2022/08/22 01:22:21;;;;;;;14.38;4.80;;;;;;;;;;5062128;28;20053;-63
2022/08/22 01:25:20;;;;;;;12.50;4.85;;;;;;;;;;5061739;28;20056;-63
2022/08/22 01:28:08;;;;;;;11.60;4.95;;;;;;;;;;5064453;28;20131;-63
2022/08/22 01:30:53;;;;;;;12.93;5.20;;;;;;;;;;5061568;28;20056;-63
2022/08/22 01:33:30;;;;;;;14.60;4.80;;;;;;;;;;5061681;28;20130;-63
2022/08/22 01:36:10;;;;;;;10.73;4.70;;;;;;;;;;5063099;28;20165;-63
2022/08/22 01:38:44;;;;;;;7.40;4.28;;;;;;;;;;5063252;28;20052;-65
2022/08/22 01:41:26;;;;;;;9.85;3.42;;;;;;;;;;5064785;28;20590;-62
2022/08/22 01:44:03;;;;;;;7.25;3.10;;;;;;;;;;5059951;28;20052;-63
2022/08/22 01:46:37;;;;;;;6.63;3.58;;;;;;;;;;5063103;28;20713;-64
2022/08/22 01:49:08;;;;;;;7.78;4.25;;;;;;;;;;5062641;28;20530;-63
2022/08/22 01:51:40;;;;;;;8.43;4.22;;;;;;;;;;5056017;28;20076;-65
2022/08/22 01:54:10;;;;;;;12.02;4.45;;;;;;;;;;5059491;28;20182;-64
2022/08/22 01:56:40;;;;;;;9.18;4.18;;;;;;;;;;5057853;28;20052;-65
2022/08/22 01:59:09;;;;;;;9.13;3.50;;;;;;;;;;5059591;28;20048;-64
2022/08/22 02:01:41;;;;;;;6.32;3.15;;;;;;;;;;5059853;28;20053;-64
2022/08/22 02:04:11;;;;;;;5.38;3.03;;;;;;;;;;5063790;28;20044;-64
2022/08/22 02:06:45;;;;;;;7.72;2.92;;;;;;;;;;5062611;28;20075;-63
2022/08/22 02:09:15;;;;;;;6.43;3.50;;;;;;;;;;5065262;28;20052;-63
2022/08/22 02:11:45;;;;;;;4.97;3.08;;;;;;;;;;5056520;28;20059;-63
2022/08/22 02:14:23;;;;;;;5.05;2.53;;;;;;;;;;5064964;28;20064;-63
2022/08/22 02:16:54;;;;;;;4.57;2.63;;;;;;;;;;5058760;28;20052;-63
2022/08/22 02:19:26;;;;;;;6.82;2.17;;;;;;;;;;5062862;28;20756;-64
2022/08/22 02:21:57;;;;;;;5.38;1.92;;;;;;;;;;5059125;28;20146;-63
2022/08/22 02:24:27;;;;;;;3.17;1.98;;;;;;;;;;5058063;28;20051;-64
2022/08/22 02:27:03;;;;;;;5.90;1.92;;;;;;;;;;5062860;28;20121;-63
2022/08/22 02:29:34;;;;;;;6.30;2.17;;;;;;;;;;5057686;28;20146;-63
2022/08/22 02:32:03;;;;;;;3.38;2.13;;;;;;;;;;5062225;28;20064;-64
2022/08/22 02:34:36;;;;;;;8.57;2.65;;;;;;;;;;5061505;28;20506;-63
2022/08/22 02:37:09;;;;;;;6.68;3.50;;;;;;;;;;5060683;28;20415;-63
2022/08/22 02:39:37;;;;;;;9.50;3.75;;;;;;;;;;5059527;28;20049;-63
2022/08/22 02:42:13;;;;;;;5.68;3.42;;;;;;;;;;5057063;28;20503;-63
2022/08/22 02:44:43;;;;;;;9.80;3.47;;;;;;;;;;5062008;28;20048;-63
2022/08/22 02:47:12;;;;;;;4.45;2.92;;;;;;;;;;5062246;28;20132;-63
2022/08/22 02:49:47;;;;;;;9.25;3.70;;;;;;;;;;5068022;28;20045;-63
2022/08/22 02:52:19;;;;;;;6.18;3.53;;;;;;;;;;5059808;28;20048;-63
2022/08/22 02:54:51;;;;;;;5.70;3.30;;;;;;;;;;5065935;28;20048;-63
2022/08/22 02:57:20;;;;;;;4.60;2.67;;;;;;;;;;5059965;28;20084;-64
2022/08/22 03:00:06;;;;;;;6.45;3.15;;;;;;;;;;5061866;28;20492;-63
2022/08/22 03:02:36;;;;;;;6.60;2.17;;;;;;;;;;5063117;28;20090;-63
2022/08/22 03:05:15;;;;;;;4.65;1.98;;;;;;;;;;5062500;28;20052;-63
2022/08/22 03:07:48;;;;;;;3.47;2.58;;;;;;;;;;5059026;28;20158;-63
2022/08/22 03:10:20;;;;;;;2.67;1.60;;;;;;;;;;5060238;28;20102;-63
2022/08/22 03:12:56;;;;;;;2.78;1.42;;;;;;;;;;5062025;28;20163;-63
2022/08/22 03:15:27;;;;;;;2.25;1.42;;;;;;;;;;5062718;28;20049;-64
2022/08/22 03:17:56;;;;;;;1.67;1.50;;;;;;;;;;5059873;28;20502;-63
2022/08/22 03:20:38;;;;;;;3.47;1.55;;;;;;;;;;5060507;28;20075;-63
2022/08/22 03:23:10;;;;;;;2.53;1.30;;;;;;;;;;5063143;28;20048;-63
2022/08/22 03:25:39;;;;;;;8.25;1.95;;;;;;;;;;5062229;28;20057;-64
2022/08/22 03:28:08;;;;;;;7.03;2.05;;;;;;;;;;5063123;28;20491;-63
2022/08/22 03:30:39;;;;;;;5.60;1.65;;;;;;;;;;5059904;28;20181;-63
2022/08/22 03:33:15;;;;;;;3.75;2.10;;;;;;;;;;5060648;28;20044;-64
2022/08/22 03:35:53;;;;;;;4.10;2.28;;;;;;;;;;5059844;28;21254;-63
2022/08/22 03:38:24;;;;;;;4.20;2.85;;;;;;;;;;5058721;28;20045;-63
2022/08/22 03:41:09;;;;;;;3.33;1.90;;;;;;;;;;5060286;28;20060;-64
2022/08/22 03:43:49;;;;;;;4.70;1.70;;;;;;;;;;5064299;28;20048;-64
2022/08/22 03:46:34;;;;;;;2.67;1.45;;;;;;;;;;5063062;28;20040;-63
2022/08/22 03:49:13;;;;;;;3.15;1.65;;;;;;;;;;5065820;28;20515;-63
2022/08/22 03:51:41;;;;;;;1.85;1.40;;;;;;;;;;5061870;28;20663;-62
2022/08/22 03:54:23;;;;;;;3.05;1.40;;;;;;;;;;5066827;28;20161;-63
2022/08/22 03:57:18;;;;;;;3.85;1.50;;;;;;;;;;5063383;28;20086;-63
2022/08/22 04:00:10;;;;;;;2.60;1.50;;;;;;;;;;5060684;28;20056;-63
2022/08/22 04:02:52;;;;;;;4.45;1.50;;;;;;;;;;5064823;28;20763;-64
2022/08/22 04:05:34;;;;;;;2.03;1.83;;;;;;;;;;5056695;28;20044;-63
2022/08/22 04:08:08;;;;;;;45.90;4.00;;;;;;;;;;5066539;28;20049;-63
2022/08/22 04:10:59;;;;;;;7.05;2.58;;;;;;;;;;5064182;28;20037;-63
2022/08/22 04:13:44;;;;;;;5.45;2.38;;;;;;;;;;4992866;28;20081;-64
2022/08/22 04:16:36;;;;;;;2.92;2.08;;;;;;;;;;5064362;28;20052;-65
2022/08/22 04:19:23;;;;;;;6.75;3.60;;;;;;;;;;5060236;28;20847;-63
2022/08/22 04:22:03;;;;;;;6.78;3.58;;;;;;;;;;5062682;28;20045;-63
2022/08/22 04:24:43;;;;;;;65.63;4.30;;;;;;;;;;5064249;28;20052;-63
2022/08/22 04:27:16;;;;;;;4.60;3.55;;;;;;;;;;5065848;28;20049;-63
2022/08/22 04:29:47;;;;;;;35.28;4.13;;;;;;;;;;5062893;28;20049;-64
2022/08/22 04:32:18;;;;;;;53.15;4.43;;;;;;;;;;5065848;28;20098;-63
2022/08/22 04:34:49;;;;;;;161.52;5.53;;;;;;;;;;5056568;28;20056;-63
2022/08/22 04:37:20;;;;;;;146.05;5.57;;;;;;;;;;5062682;28;20115;-63
2022/08/22 04:39:50;;;;;;;8.48;3.25;;;;;;;;;;5066746;28;20510;-63
2022/08/22 04:42:20;;;;;;;132.40;8.07;;;;;;;;;;5062259;28;20064;-64
2022/08/22 04:44:52;;;;;;;3.92;3.03;;;;;;;;;;5058538;28;20060;-63
2022/08/22 04:47:28;;;;;;;3.13;2.53;;;;;;;;;;5055704;28;20492;-62
2022/08/22 04:49:57;;;;;;;3.80;2.53;;;;;;;;;;5056173;28;20067;-63
2022/08/22 04:52:31;;;;;;;4.13;2.40;;;;;;;;;;5058333;28;20067;-64
2022/08/22 04:55:03;;;;;;;4.15;2.58;;;;;;;;;;5058298;28;20071;-64
2022/08/22 04:57:35;;;;;;;2.45;2.20;;;;;;;;;;5065669;28;20040;-63
2022/08/22 05:00:05;;;;;;;2.30;2.10;;;;;;;;;;5064083;28;20056;-64
2022/08/22 05:02:36;;;;;;;2.90;2.05;;;;;;;;;;5061642;28;20056;-63
2022/08/22 05:05:05;;;;;;;4.68;2.20;;;;;;;;;;5067796;28;20123;-63
2022/08/22 05:07:36;;;;;;;3.25;2.20;;;;;;;;;;5062168;28;20048;-63
2022/08/22 05:10:06;;;;;;;2.38;1.90;;;;;;;;;;5064645;28;20048;-63
2022/08/22 05:12:37;;;;;;;4.47;1.75;;;;;;;;;;5064650;28;20052;-63
2022/08/22 05:15:07;;;;;;;1.98;1.77;;;;;;;;;;5064923;28;20429;-64
2022/08/22 05:17:35;;;;;;;2.55;1.30;;;;;;;;;;5056690;28;20056;-63
2022/08/22 05:20:05;;;;;;;1.92;1.45;;;;;;;;;;5064062;28;20094;-64
2022/08/22 05:22:35;;;;;;;1.95;1.30;;;;;;;;;;5065279;28;20127;-64
2022/08/22 05:25:03;;;;;;;1.92;1.30;;;;;;;;;;5059820;28;20064;-63
2022/08/22 05:27:32;;;;;;;2.75;1.48;;;;;;;;;;5068290;28;20064;-63
2022/08/22 05:30:02;;;;;;;4.82;1.25;;;;;;;;;;5056771;28;20044;-63
2022/08/22 05:32:33;;;;;;;1.40;1.30;;;;;;;;;;5069377;28;20058;-63
2022/08/22 05:35:02;;;;;;;1.40;1.30;;;;;;;;;;5066750;28;20043;-63
2022/08/22 05:37:38;;;;;;;1.67;1.58;;;;;;;;;;5074242;28;20053;-63
2022/08/22 05:40:06;;;;;;;4.38;1.90;;;;;;;;;;5068723;28;20102;-63
2022/08/22 05:42:36;;;;;;;2.28;1.67;;;;;;;;;;5061413;28;20457;-65
2022/08/22 05:45:05;;;;;;;2.40;2.10;;;;;;;;;;5062450;28;20048;-62
2022/08/22 05:47:37;;;;;;;2.03;1.77;;;;;;;;;;5064966;28;20048;-64
2022/08/22 05:50:07;;;;;;;2.75;2.05;;;;;;;;;;5060511;28;20087;-63
2022/08/22 05:52:40;;;;;;;3.28;1.95;;;;;;;;;;5060634;28;20044;-63
2022/08/22 05:55:12;;;;;;;5.40;1.90;;;;;;;;;;5063519;28;20141;-63
2022/08/22 05:57:42;;;;;;;6.85;1.85;;;;;;;;;;5052722;28;20060;-65
2022/08/22 06:00:12;;;;;;;2.38;1.85;;;;;;;;;;5057617;28;20044;-65
2022/08/22 06:02:48;;;;;;;2.58;2.00;;;;;;;;;;5062827;28;20044;-63
2022/08/22 06:05:20;;;;;;;2.95;2.25;;;;;;;;;;5061209;28;20049;-64
2022/08/22 06:07:49;;;;;;;2.00;1.80;;;;;;;;;;5054725;28;20048;-64
2022/08/22 06:10:19;;;;;;;5.78;3.08;;;;;;;;;;5058131;28;20052;-63
2022/08/22 06:12:50;;;;;;;6.05;3.97;;;;;;;;;;5060616;28;20052;-64
2022/08/22 06:15:21;;;;;;;7.40;3.50;;;;;;;;;;5060185;28;20499;-63
2022/08/22 06:17:51;;;;;;;8.27;3.80;;;;;;;;;;5060137;28;20059;-63
2022/08/22 06:20:20;;;;;;;10.95;4.38;;;;;;;;;;5062470;28;20740;-63
2022/08/22 06:22:50;;;;;;;5.35;3.55;;;;;;;;;;5052265;28;20062;-63
2022/08/22 06:25:21;;;;;;;4.95;3.22;;;;;;;;;;5058052;28;20049;-63
2022/08/22 06:27:49;;;;;;;5.68;4.22;;;;;;;;;;5062802;28;20052;-63
2022/08/22 06:30:17;;;;;;;4.55;3.92;;;;;;;;;;5059325;28;20052;-63
2022/08/22 06:32:47;;;;;;;4.72;3.30;;;;;;;;;;5060376;28;20071;-64
2022/08/22 06:35:19;;;;;;;10.52;4.78;;;;;;;;;;5058153;28;20651;-65
2022/08/22 06:37:48;;;;;;;6.13;4.15;;;;;;;;;;5058946;28;20057;-63
2022/08/22 06:40:16;;;;;;;6.57;4.25;;;;;;;;;;5062414;28;20041;-64
2022/08/22 06:42:46;;;;;;;4.30;3.10;;;;;;;;;;5059750;28;20155;-64
2022/08/22 06:45:17;;;;;;;5.57;2.72;;;;;;;;;;5052978;28;20057;-63
2022/08/22 06:47:47;;;;;;;7.38;3.55;;;;;;;;;;5059785;28;20053;-63
2022/08/22 06:50:20;;;;;;;7.18;4.53;;;;;;;;;;5061757;28;20048;-63
2022/08/22 06:52:52;;;;;;;7.43;3.67;;;;;;;;;;5051583;28;20091;-64
2022/08/22 06:55:19;;;;;;;5.90;4.60;;;;;;;;;;5059959;28;20394;-64
2022/08/22 06:57:50;;;;;;;8.68;4.57;;;;;;;;;;5056310;28;20708;-64
2022/08/22 07:00:18;;;;;;;9.88;3.75;;;;;;;;;;5061415;28;20131;-65
2022/08/22 07:02:47;;;;;;;12.27;4.65;;;;;;;;;;5058720;28;20116;-63
2022/08/22 07:05:18;;;;;;;13.50;5.03;;;;;;;;;;5060385;28;20099;-63
2022/08/22 07:07:45;;;;;;;12.35;4.80;;;;;;;;;;5061731;28;20068;-63
2022/08/22 07:10:13;;;;;;;12.05;4.85;;;;;;;;;;5061121;28;20448;-64
2022/08/22 07:12:44;;;;;;;13.35;4.88;;;;;;;;;;5056819;28;20064;-63
2022/08/22 07:15:13;;;;;;;13.20;5.15;;;;;;;;;;5060154;28;20049;-63
2022/08/22 07:17:48;;;;;;;12.80;4.82;;;;;;;;;;5063807;28;20083;-64
2022/08/22 07:20:21;;;;;;;14.25;4.97;;;;;;;;;;5065034;28;20502;-64
2022/08/22 07:22:53;;;;;;;11.85;4.72;;;;;;;;;;5062992;28;20140;-63
2022/08/22 07:25:20;;;;;;;13.40;5.10;;;;;;;;;;5065518;28;20098;-65
2022/08/22 07:27:53;;;;;;;19.02;6.05;;;;;;;;;;5065203;28;20056;-64
2022/08/22 07:30:21;;;;;;;15.43;5.35;;;;;;;;;;5063609;28;20063;-64
2022/08/22 07:32:52;;;;;;;22.13;5.30;;;;;;;;;;5064643;28;20057;-63
2022/08/22 07:35:23;;;;;;;19.30;4.07;;;;;;;;;;5068296;28;20048;-63
2022/08/22 07:37:55;;;;;;;16.95;3.95;;;;;;;;;;5060048;28;20053;-63
2022/08/22 07:40:25;;;;;;;13.63;3.50;;;;;;;;;;5062469;28;20472;-63
2022/08/22 07:42:56;;;;;;;17.38;4.32;;;;;;;;;;5068230;28;20153;-64
2022/08/22 07:45:32;;;;;;;17.85;4.10;;;;;;;;;;5063550;28;20057;-63
2022/08/22 07:48:04;;;;;;;16.95;4.10;;;;;;;;;;5063567;28;20076;-63
2022/08/22 07:50:33;;;;;;;17.63;2.92;;;;;;;;;;5062376;28;20040;-64
2022/08/22 07:53:04;;;;;;;13.90;3.60;;;;;;;;;;5062767;28;20052;-63
2022/08/22 07:55:32;;;;;;;17.60;3.30;;;;;;;;;;5059242;28;20057;-63
2022/08/22 07:58:01;;;;;;;16.88;3.75;;;;;;;;;;5064983;28;20045;-64
2022/08/22 08:00:29;;;;;;;13.07;3.33;;;;;;;;;;5059562;28;20056;-64
2022/08/22 08:02:58;;;;;;;13.82;2.95;;;;;;;;;;5063861;28;20047;-63
2022/08/22 08:05:27;;;;;;;11.55;3.03;;;;;;;;;;5068457;28;20099;-63
2022/08/22 08:07:56;;;;;;;15.73;3.33;;;;;;;;;;5064798;28;20055;-64
2022/08/22 08:10:26;;;;;;;13.32;2.53;;;;;;;;;;5060816;28;20403;-63
2022/08/22 08:12:58;;;;;;;15.52;2.50;;;;;;;;;;5063586;28;20059;-64
2022/08/22 08:15:26;;;;;;;12.25;2.88;;;;;;;;;;5058195;28;20053;-63
2022/08/22 08:18:05;;;;;;;11.43;2.58;;;;;;;;;;5064555;28;20510;-64
2022/08/22 08:20:34;;;;;;;10.35;2.55;;;;;;;;;;5062599;28;20048;-64
2022/08/22 08:23:04;;;;;;;12.23;2.20;;;;;;;;;;5064208;28;20052;-63
2022/08/22 08:25:32;;;;;;;8.15;2.40;;;;;;;;;;5067216;28;20083;-63
2022/08/22 08:30:55;;;;;;;12.68;2.70;;;;;;;;;;5028383;28;20528;-64
2022/08/22 08:33:24;;;;;;;13.77;2.42;;;;;;;;;;5067578;28;20072;-63
2022/08/22 08:35:53;;;;;;;12.23;2.60;;;;;;;;;;5066535;28;20066;-64
2022/08/22 08:38:23;;;;;;;14.80;3.17;;;;;;;;;;5062876;28;20059;-64
2022/08/22 08:41:02;;;;;;;11.90;2.95;;;;;;;;;;5059344;28;20044;-64
2022/08/22 08:43:38;;;;;;;16.90;3.20;;;;;;;;;;5059640;28;20071;-64
2022/08/22 08:46:24;;;;;;;9.90;2.30;;;;;;;;;;5058148;28;20053;-64
2022/08/22 08:49:00;;;;;;;12.52;2.63;;;;;;;;;;5064138;28;20445;-63
2022/08/22 08:51:36;;;;;;;8.90;2.20;;;;;;;;;;5060127;28;20229;-65
2022/08/22 08:54:13;;;;;;;14.98;2.85;;;;;;;;;;5064245;28;20056;-64
2022/08/22 08:56:47;;;;;;;13.40;2.72;;;;;;;;;;5056174;28;20079;-63
2022/08/22 08:59:24;;;;;;;14.02;2.80;;;;;;;;;;5060736;28;20612;-63
2022/08/22 09:02:02;;;;;;;8.30;2.42;;;;;;;;;;5065062;28;20087;-63
2022/08/22 09:04:39;;;;;;;12.18;3.10;;;;;;;;;;5061393;28;20067;-63
2022/08/22 09:07:18;;;;;;;9.93;2.10;;;;;;;;;;5065810;28;20048;-64
2022/08/22 09:09:53;;;;;;;7.65;2.20;;;;;;;;;;5065472;28;20156;-63
2022/08/22 09:12:33;;;;;;;12.07;2.53;;;;;;;;;;5064898;28;20122;-64
2022/08/22 09:15:22;;;;;;;6.65;2.17;;;;;;;;;;5066942;28;20051;-63
2022/08/22 09:18:09;;;;;;;8.00;1.88;;;;;;;;;;5063726;28;21088;-64
2022/08/22 09:21:02;;;;;;;7.97;2.40;;;;;;;;;;5062990;28;20146;-65
2022/08/22 09:23:41;;;;;;;10.70;2.10;;;;;;;;;;5058484;28;20049;-63
2022/08/22 09:26:13;;;;;;;7.18;2.17;;;;;;;;;;5064206;28;20056;-65
2022/08/22 09:28:47;;;;;;;8.60;2.17;;;;;;;;;;5060901;28;20053;-64
2022/08/22 09:31:36;;;;;;;7.10;2.15;;;;;;;;;;5063319;28;20127;-64
2022/08/22 09:34:09;;;;;;;8.90;2.35;;;;;;;;;;5059987;28;20109;-64
2022/08/22 09:36:36;;;;;;;;;;;;;;;;;;5064680;28;20476;-64
2022/08/22 09:39:06;;;;;;;7.85;1.90;;;;;;;;;;5063582;28;19920;-64
2022/08/22 09:41:40;;;;;;;9.50;2.10;;;;;;;;;;5058035;28;20049;-64
2022/08/22 09:44:15;;;;;;;9.98;2.17;;;;;;;;;;5064015;28;20482;-64
2022/08/22 09:46:50;;;;;;;7.20;1.85;;;;;;;;;;5063210;28;20488;-65
2022/08/22 09:49:20;;;;;;;9.07;2.28;;;;;;;;;;5073978;28;20049;-64
2022/08/22 09:51:53;;;;;;;10.75;2.25;;;;;;;;;;5063692;28;20048;-64
2022/08/22 09:54:28;;;;;;;8.52;2.60;;;;;;;;;;5061108;28;20487;-64
2022/08/22 09:57:00;;;;;;;6.63;1.80;;;;;;;;;;5057744;28;20725;-65
2022/08/22 09:59:36;;;;;;;5.07;1.92;;;;;;;;;;5057246;28;20124;-64
2022/08/22 10:02:07;;;;;;;11.75;2.20;;;;;;;;;;5060506;28;20499;-64
2022/08/22 10:04:42;;;;;;;10.52;2.20;;;;;;;;;;5066741;28;20049;-64
2022/08/22 10:07:19;;;;;;;7.32;2.28;;;;;;;;;;5063089;28;20126;-64
2022/08/22 10:09:51;;;;;;;8.52;2.20;;;;;;;;;;5063742;28;20048;-65
2022/08/22 10:12:25;;;;;;;6.03;1.90;;;;;;;;;;5063155;28;20071;-64
2022/08/22 10:15:02;;;;;;;11.00;2.35;;;;;;;;;;5063833;28;20147;-63
2022/08/22 10:17:31;;;;;;;8.57;1.80;;;;;;;;;;5060483;28;20113;-65
2022/08/22 10:20:02;;;;;;;7.28;1.60;;;;;;;;;;5059670;28;20510;-65
2022/08/22 10:22:40;;;;;;;7.78;1.85;;;;;;;;;;5061766;28;20079;-64
2022/08/22 10:25:13;;;;;;;7.97;2.08;;;;;;;;;;5063719;28;20054;-64
2022/08/22 10:27:52;;;;;;;11.07;1.90;;;;;;;;;;5061523;28;20110;-64
2022/08/22 10:30:20;;;;;;;4.75;1.95;;;;;;;;;;5057157;28;20065;-65
2022/08/22 10:32:52;;;;;;;5.85;2.28;;;;;;;;;;5064468;28;20049;-64
2022/08/22 10:35:21;;;;;;;7.50;2.08;;;;;;;;;;5059111;28;20045;-64
2022/08/22 10:37:54;;;;;;;7.40;2.08;;;;;;;;;;5060302;28;20056;-64
2022/08/22 10:40:24;;;;;;;8.35;2.15;;;;;;;;;;5062284;28;20123;-64
2022/08/22 10:42:55;;;;;;;6.90;2.00;;;;;;;;;;5063852;28;20458;-63
2022/08/22 10:45:27;;;;;;;8.98;2.55;;;;;;;;;;5063894;28;20045;-64
2022/08/22 10:48:13;;;;;;;5.95;1.95;;;;;;;;;;5059319;28;20048;-65
2022/08/22 10:50:43;;;;;;;7.80;2.05;;;;;;;;;;5064139;28;20064;-65
2022/08/22 10:53:32;;;;;;;11.32;2.17;;;;;;;;;;5069067;28;20048;-64
2022/08/22 10:56:06;;;;;;;9.60;2.33;;;;;;;;;;5065334;28;20040;-64
2022/08/22 10:58:38;;;;;;;8.25;2.00;;;;;;;;;;5066808;28;20048;-64
2022/08/22 11:01:07;;;;;;;9.82;2.05;;;;;;;;;;5065808;28;20049;-64
2022/08/22 11:03:40;;;;;;;7.03;2.05;;;;;;;;;;5066127;28;20052;-65
2022/08/22 11:06:07;;;;;;;;;;;;;;;;;;5065165;28;20044;-64
2022/08/22 11:08:50;;;;;;;6.60;1.80;;;;;;;;;;5062078;28;19924;-65
2022/08/22 11:11:21;;;;;;;6.32;1.55;;;;;;;;;;5070414;28;20448;-63
2022/08/22 11:13:55;;;;;;;9.02;2.20;;;;;;;;;;5064206;28;20110;-64
2022/08/22 11:16:29;;;;;;;6.00;2.20;;;;;;;;;;5066357;28;20049;-63
2022/08/22 11:19:04;;;;;;;7.93;2.28;;;;;;;;;;5065154;28;20897;-64
2022/08/22 11:21:37;;;;;;;6.28;1.83;;;;;;;;;;5061024;28;20040;-64
2022/08/22 11:24:05;;;;;;;;;;;;;;;;;;5062962;28;20044;-64
2022/08/22 11:26:37;;;;;;;8.43;1.98;;;;;;;;;;5065486;28;19932;-65
2022/08/22 11:29:25;;;;;;;7.55;1.73;;;;;;;;;;5070027;28;20044;-64
2022/08/22 11:31:58;;;;;;;8.43;1.77;;;;;;;;;;5063452;28;20076;-65
2022/08/22 11:34:32;;;;;;;6.60;1.88;;;;;;;;;;5065805;28;20063;-64
2022/08/22 11:37:05;;;;;;;7.95;2.17;;;;;;;;;;5068701;28;20048;-64
2022/08/22 11:39:35;;;;;;;5.60;1.90;;;;;;;;;;5065323;28;20072;-66
2022/08/22 11:42:06;;;;;;;6.78;2.10;;;;;;;;;;5068369;28;20063;-65
2022/08/22 11:44:37;;;;;;;6.18;1.90;;;;;;;;;;5064141;28;20049;-65
2022/08/22 11:47:09;;;;;;;6.53;2.65;;;;;;;;;;5062992;28;20056;-64
2022/08/22 11:49:45;;;;;;;8.18;1.98;;;;;;;;;;5066431;28;21362;-64
2022/08/22 11:52:18;;;;;;;6.18;2.05;;;;;;;;;;5064566;28;20106;-64
2022/08/22 11:54:57;;;;;;;8.13;2.17;;;;;;;;;;5066266;28;20578;-64
2022/08/22 11:57:29;;;;;;;9.40;1.85;;;;;;;;;;5064232;28;20052;-64
2022/08/22 12:00:05;;;;;;;6.22;1.98;;;;;;;;;;5065294;28;20048;-65
2022/08/22 12:02:40;;;;;;;7.38;2.10;;;;;;;;;;5064267;28;20044;-65
2022/08/22 12:05:11;;;;;;;5.63;2.42;;;;;;;;;;5069878;28;20056;-66
2022/08/22 12:07:40;;;;;;;5.53;1.85;;;;;;;;;;5064523;28;20053;-65
2022/08/22 12:10:11;;;;;;;6.22;2.00;;;;;;;;;;5064320;28;20075;-65
2022/08/22 12:12:45;;;;;;;10.02;2.05;;;;;;;;;;5065657;28;20045;-64
2022/08/22 12:15:19;;;;;;;10.65;2.60;;;;;;;;;;5061338;28;20106;-64
2022/08/22 12:18:10;;;;;;;6.00;1.98;;;;;;;;;;5065632;28;20735;-66
2022/08/22 12:20:55;;;;;;;6.65;2.03;;;;;;;;;;5060835;28;20044;-65
2022/08/22 12:23:29;;;;;;;10.15;2.33;;;;;;;;;;5066668;28;20067;-64
2022/08/22 12:26:06;;;;;;;9.30;2.70;;;;;;;;;;5063279;28;20076;-65
2022/08/22 12:28:38;;;;;;;5.18;1.80;;;;;;;;;;5057350;28;20048;-64
2022/08/22 12:31:12;;;;;;;6.82;2.20;;;;;;;;;;5060337;28;20117;-64
2022/08/22 12:33:44;;;;;;;4.95;2.08;;;;;;;;;;5063648;28;20640;-65
2022/08/22 12:36:20;;;;;;;5.97;2.30;;;;;;;;;;5060213;28;20044;-65
2022/08/22 12:38:52;;;;;;;7.70;2.30;;;;;;;;;;5064430;28;20052;-65
2022/08/22 12:41:19;;;;;;;;;;;;;;;;;;5062435;28;20121;-65
2022/08/22 12:43:53;;;;;;;7.53;2.25;;;;;;;;;;5062203;28;19924;-65
2022/08/22 12:46:33;;;;;;;6.60;2.15;;;;;;;;;;5059570;28;20044;-65
2022/08/22 12:49:08;;;;;;;8.27;2.83;;;;;;;;;;5061835;28;20061;-66
2022/08/22 12:51:39;;;;;;;8.05;2.47;;;;;;;;;;5058931;28;20057;-65
2022/08/22 12:54:26;;;;;;;6.95;2.45;;;;;;;;;;5065250;28;20105;-65
2022/08/22 12:56:59;;;;;;;5.60;2.50;;;;;;;;;;5060249;28;20049;-65
2022/08/22 12:59:29;;;;;;;6.95;2.50;;;;;;;;;;5063322;28;20499;-65
2022/08/22 13:02:00;;;;;;;8.32;2.60;;;;;;;;;;5067361;28;20048;-65
2022/08/22 13:04:28;;;;;;;10.48;3.00;;;;;;;;;;5065864;28;20051;-66
2022/08/22 13:07:01;;;;;;;9.98;2.97;;;;;;;;;;5061886;28;20122;-65
2022/08/22 13:09:30;;;;;;;11.13;3.60;;;;;;;;;;5062733;28;20044;-65
2022/08/22 13:12:00;;;;;;;7.85;2.80;;;;;;;;;;5065718;28;21248;-65
2022/08/22 13:14:28;;;;;;;5.70;2.60;;;;;;;;;;5064191;28;20052;-65
2022/08/22 13:16:59;;;;;;;7.93;2.90;;;;;;;;;;5062907;28;20177;-65
2022/08/22 13:19:28;;;;;;;6.57;2.40;;;;;;;;;;5063650;28;20052;-65
2022/08/22 13:21:58;;;;;;;7.20;2.60;;;;;;;;;;5059767;28;20443;-66
2022/08/22 13:24:30;;;;;;;7.53;2.70;;;;;;;;;;5064927;28;20079;-65
2022/08/22 13:27:02;;;;;;;7.97;2.70;;;;;;;;;;5059640;28;20052;-65
2022/08/22 13:29:42;;;;;;;7.28;2.97;;;;;;;;;;5065677;28;20071;-65
2022/08/22 13:32:16;;;;;;;7.18;2.55;;;;;;;;;;5064851;28;20045;-64
2022/08/22 13:34:46;;;;;;;9.93;2.53;;;;;;;;;;5056883;28;20564;-64
2022/08/22 13:37:15;;;;;;;10.48;2.63;;;;;;;;;;5066248;28;20052;-65
2022/08/22 13:39:44;;;;;;;8.73;2.80;;;;;;;;;;5062718;28;20053;-65
2022/08/22 13:42:17;;;;;;;8.02;2.72;;;;;;;;;;5065188;28;20098;-65
2022/08/22 13:44:46;;;;;;;9.35;2.42;;;;;;;;;;5064484;28;20052;-65
2022/08/22 13:47:17;;;;;;;8.38;2.75;;;;;;;;;;5061115;28;20064;-64
2022/08/22 13:49:47;;;;;;;5.95;3.08;;;;;;;;;;5065762;28;20044;-64
2022/08/22 13:52:20;;;;;;;7.07;2.38;;;;;;;;;;5061643;28;20562;-64
2022/08/22 13:54:56;;;;;;;6.55;2.20;;;;;;;;;;5061532;28;20052;-65
2022/08/22 13:57:26;;;;;;;8.70;2.55;;;;;;;;;;5063767;28;20047;-64
2022/08/22 13:59:55;;;;;;;9.77;2.55;;;;;;;;;;5064612;28;20403;-64
2022/08/22 14:02:31;;;;;;;10.23;2.25;;;;;;;;;;5065858;28;20048;-64
2022/08/22 14:05:01;;;;;;;9.57;2.25;;;;;;;;;;5066457;28;20411;-64
2022/08/22 14:07:32;;;;;;;7.93;2.50;;;;;;;;;;5063857;28;20048;-64
2022/08/22 14:10:01;;;;;;;5.43;1.95;;;;;;;;;;5064173;28;20106;-64
2022/08/22 14:12:30;;;;;;;9.88;2.50;;;;;;;;;;5059096;28;20049;-64
2022/08/22 14:14:59;;;;;;;12.48;2.35;;;;;;;;;;5063367;28;20468;-65
2022/08/22 14:17:33;;;;;;;8.63;2.53;;;;;;;;;;5058882;28;20731;-64
2022/08/22 14:20:03;;;;;;;10.02;2.33;;;;;;;;;;5063303;28;20064;-64
2022/08/22 14:22:32;;;;;;;9.35;2.65;;;;;;;;;;5062123;28;20048;-65
2022/08/22 14:25:01;;;;;;;8.95;2.15;;;;;;;;;;5063863;28;20044;-64
2022/08/22 14:27:29;;;;;;;13.02;2.63;;;;;;;;;;5063979;28;20059;-64
2022/08/22 14:30:00;;;;;;;7.60;2.47;;;;;;;;;;5067287;28;20052;-64
2022/08/22 14:32:37;;;;;;;10.68;3.00;;;;;;;;;;5064231;28;20471;-64
2022/08/22 14:35:06;;;;;;;8.70;2.28;;;;;;;;;;5061637;28;20048;-64
2022/08/22 14:37:34;;;;;;;12.98;2.47;;;;;;;;;;5063195;28;20052;-64
2022/08/22 14:40:06;;;;;;;8.75;2.55;;;;;;;;;;5061523;28;20044;-64
2022/08/22 14:42:39;;;;;;;8.52;2.63;;;;;;;;;;5064488;28;20045;-64
2022/08/22 14:45:12;;;;;;;11.15;3.05;;;;;;;;;;5064181;28;20052;-64
2022/08/22 14:47:42;;;;;;;12.05;2.90;;;;;;;;;;5058387;28;20063;-65
2022/08/22 14:50:10;;;;;;;10.77;3.20;;;;;;;;;;5059305;28;20107;-63
2022/08/22 14:52:39;;;;;;;10.70;2.80;;;;;;;;;;5060542;28;20063;-64
2022/08/22 14:55:12;;;;;;;12.40;2.85;;;;;;;;;;5062562;28;20094;-64
2022/08/22 14:57:43;;;;;;;8.60;2.67;;;;;;;;;;5060931;28;20052;-63
2022/08/22 15:00:12;;;;;;;9.25;2.83;;;;;;;;;;5061062;28;20105;-64
2022/08/22 15:02:41;;;;;;;14.38;3.05;;;;;;;;;;5061258;28;20150;-64
2022/08/22 15:05:14;;;;;;;7.22;2.33;;;;;;;;;;5066959;28;20563;-64
2022/08/22 15:07:42;;;;;;;9.73;2.53;;;;;;;;;;5063911;28;20218;-64
2022/08/22 15:10:18;;;;;;;11.27;2.88;;;;;;;;;;5059122;28;20138;-64
2022/08/22 15:12:47;;;;;;;14.00;3.17;;;;;;;;;;5063017;28;20056;-64
2022/08/22 15:15:16;;;;;;;11.65;2.90;;;;;;;;;;5064816;28;20055;-64
2022/08/22 15:17:46;;;;;;;11.10;2.63;;;;;;;;;;5061831;28;20059;-63
2022/08/22 15:20:22;;;;;;;10.25;3.15;;;;;;;;;;5057653;28;20044;-64